sensor_id;sensor_type;location;lat;lon;timestamp;P1;durP1;ratioP1;P2;durP2;ratioP2
21046;SDS011;10682;50.874;3.656;2024-02-26T00:00:42;5.07;;;1.80;;
21046;SDS011;10682;50.874;3.656;2024-02-26T00:03:10;3.50;;;1.67;;
21046;SDS011;10682;50.874;3.656;2024-02-26T00:05:37;2.50;;;1.53;;
21046;SDS011;10682;50.874;3.656;2024-02-26T00:08:05;5.67;;;1.70;;
21046;SDS011;10682;50.874;3.656;2024-02-26T00:10:33;5.03;;;1.70;;
21046;SDS011;10682;50.874;3.656;2024-02-26T00:13:00;3.87;;;1.73;;
21046;SDS011;10682;50.874;3.656;2024-02-26T00:15:27;5.60;;;1.80;;
21046;SDS011;10682;50.874;3.656;2024-02-26T00:20:52;5.73;;;1.67;;
21046;SDS011;10682;50.874;3.656;2024-02-26T00:23:20;4.40;;;2.03;;
21046;SDS011;10682;50.874;3.656;2024-02-26T00:25:47;3.93;;;1.60;;
21046;SDS011;10682;50.874;3.656;2024-02-26T00:28:14;6.40;;;2.00;;
21046;SDS011;10682;50.874;3.656;2024-02-26T00:30:42;3.50;;;1.90;;
21046;SDS011;10682;50.874;3.656;2024-02-26T00:33:09;5.73;;;1.93;;
21046;SDS011;10682;50.874;3.656;2024-02-26T00:35:36;6.77;;;2.00;;
21046;SDS011;10682;50.874;3.656;2024-02-26T00:38:03;3.47;;;1.90;;
21046;SDS011;10682;50.874;3.656;2024-02-26T00:40:31;6.13;;;1.93;;
21046;SDS011;10682;50.874;3.656;2024-02-26T00:42:58;2.77;;;1.57;;
21046;SDS011;10682;50.874;3.656;2024-02-26T00:45:25;6.17;;;1.93;;
21046;SDS011;10682;50.874;3.656;2024-02-26T00:47:52;6.63;;;1.80;;
21046;SDS011;10682;50.874;3.656;2024-02-26T00:50:22;5.57;;;1.70;;
21046;SDS011;10682;50.874;3.656;2024-02-26T00:56:03;5.37;;;1.90;;
21046;SDS011;10682;50.874;3.656;2024-02-26T00:58:30;6.40;;;1.80;;
21046;SDS011;10682;50.874;3.656;2024-02-26T01:00:57;3.27;;;1.80;;
21046;SDS011;10682;50.874;3.656;2024-02-26T01:03:24;3.70;;;1.83;;
21046;SDS011;10682;50.874;3.656;2024-02-26T01:05:52;4.27;;;1.80;;
21046;SDS011;10682;50.874;3.656;2024-02-26T01:08:23;2.57;;;1.57;;
21046;SDS011;10682;50.874;3.656;2024-02-26T01:10:51;2.80;;;1.50;;
21046;SDS011;10682;50.874;3.656;2024-02-26T01:13:18;2.73;;;1.53;;
21046;SDS011;10682;50.874;3.656;2024-02-26T01:15:45;5.80;;;2.07;;
21046;SDS011;10682;50.874;3.656;2024-02-26T01:18:12;2.53;;;1.40;;
21046;SDS011;10682;50.874;3.656;2024-02-26T01:20:40;3.17;;;1.70;;
21046;SDS011;10682;50.874;3.656;2024-02-26T01:23:07;6.60;;;1.53;;
21046;SDS011;10682;50.874;3.656;2024-02-26T01:25:34;5.10;;;1.60;;
21046;SDS011;10682;50.874;3.656;2024-02-26T01:28:01;3.63;;;1.53;;
21046;SDS011;10682;50.874;3.656;2024-02-26T01:30:29;5.10;;;1.50;;
21046;SDS011;10682;50.874;3.656;2024-02-26T01:32:56;3.90;;;1.60;;
21046;SDS011;10682;50.874;3.656;2024-02-26T01:35:24;5.57;;;1.70;;
21046;SDS011;10682;50.874;3.656;2024-02-26T01:37:51;2.40;;;1.50;;
21046;SDS011;10682;50.874;3.656;2024-02-26T01:40:18;2.30;;;1.60;;
21046;SDS011;10682;50.874;3.656;2024-02-26T01:42:46;2.57;;;1.73;;
21046;SDS011;10682;50.874;3.656;2024-02-26T01:45:16;4.73;;;1.40;;
21046;SDS011;10682;50.874;3.656;2024-02-26T01:47:52;3.00;;;1.50;;
21046;SDS011;10682;50.874;3.656;2024-02-26T01:50:21;2.23;;;1.37;;
21046;SDS011;10682;50.874;3.656;2024-02-26T01:52:51;3.40;;;1.53;;
21046;SDS011;10682;50.874;3.656;2024-02-26T01:55:19;4.60;;;1.50;;
21046;SDS011;10682;50.874;3.656;2024-02-26T01:57:50;4.90;;;2.00;;
21046;SDS011;10682;50.874;3.656;2024-02-26T02:00:19;4.47;;;1.80;;
21046;SDS011;10682;50.874;3.656;2024-02-26T02:02:48;3.90;;;1.90;;
21046;SDS011;10682;50.874;3.656;2024-02-26T02:05:16;8.03;;;1.90;;
21046;SDS011;10682;50.874;3.656;2024-02-26T02:07:44;3.80;;;1.60;;
21046;SDS011;10682;50.874;3.656;2024-02-26T02:10:13;4.10;;;1.70;;
21046;SDS011;10682;50.874;3.656;2024-02-26T02:12:41;3.77;;;1.60;;
21046;SDS011;10682;50.874;3.656;2024-02-26T02:15:09;6.20;;;1.60;;
21046;SDS011;10682;50.874;3.656;2024-02-26T02:17:36;7.27;;;1.70;;
21046;SDS011;10682;50.874;3.656;2024-02-26T02:20:05;5.30;;;1.90;;
21046;SDS011;10682;50.874;3.656;2024-02-26T02:25:28;6.97;;;1.60;;
21046;SDS011;10682;50.874;3.656;2024-02-26T02:27:55;7.67;;;1.80;;
21046;SDS011;10682;50.874;3.656;2024-02-26T02:30:23;2.70;;;1.40;;
21046;SDS011;10682;50.874;3.656;2024-02-26T02:32:55;5.27;;;1.40;;
21046;SDS011;10682;50.874;3.656;2024-02-26T02:35:27;2.23;;;1.20;;
21046;SDS011;10682;50.874;3.656;2024-02-26T02:38:10;4.17;;;1.50;;
21046;SDS011;10682;50.874;3.656;2024-02-26T02:40:37;3.77;;;1.60;;
21046;SDS011;10682;50.874;3.656;2024-02-26T02:43:04;2.63;;;1.60;;
21046;SDS011;10682;50.874;3.656;2024-02-26T02:45:31;3.03;;;1.47;;
21046;SDS011;10682;50.874;3.656;2024-02-26T02:47:58;2.63;;;1.57;;
21046;SDS011;10682;50.874;3.656;2024-02-26T02:50:26;2.43;;;1.50;;
21046;SDS011;10682;50.874;3.656;2024-02-26T02:52:55;2.73;;;1.50;;
21046;SDS011;10682;50.874;3.656;2024-02-26T02:55:22;4.20;;;1.70;;
21046;SDS011;10682;50.874;3.656;2024-02-26T02:57:49;4.60;;;1.60;;
21046;SDS011;10682;50.874;3.656;2024-02-26T03:00:16;3.63;;;1.73;;
21046;SDS011;10682;50.874;3.656;2024-02-26T03:02:44;3.30;;;2.10;;
21046;SDS011;10682;50.874;3.656;2024-02-26T03:05:12;4.13;;;2.10;;
21046;SDS011;10682;50.874;3.656;2024-02-26T03:07:40;4.17;;;1.80;;
21046;SDS011;10682;50.874;3.656;2024-02-26T03:10:07;3.27;;;1.67;;
21046;SDS011;10682;50.874;3.656;2024-02-26T03:12:34;3.00;;;1.80;;
21046;SDS011;10682;50.874;3.656;2024-02-26T03:15:02;3.03;;;1.70;;
21046;SDS011;10682;50.874;3.656;2024-02-26T03:17:29;3.27;;;1.90;;
21046;SDS011;10682;50.874;3.656;2024-02-26T03:19:56;3.60;;;1.77;;
21046;SDS011;10682;50.874;3.656;2024-02-26T03:22:23;3.67;;;1.90;;
21046;SDS011;10682;50.874;3.656;2024-02-26T03:24:51;3.27;;;2.03;;
21046;SDS011;10682;50.874;3.656;2024-02-26T03:27:18;4.93;;;2.37;;
21046;SDS011;10682;50.874;3.656;2024-02-26T03:29:45;3.57;;;2.00;;
21046;SDS011;10682;50.874;3.656;2024-02-26T03:32:12;3.70;;;2.50;;
21046;SDS011;10682;50.874;3.656;2024-02-26T03:34:39;5.23;;;2.60;;
21046;SDS011;10682;50.874;3.656;2024-02-26T03:37:06;7.53;;;2.67;;
21046;SDS011;10682;50.874;3.656;2024-02-26T03:39:36;3.60;;;2.77;;
21046;SDS011;10682;50.874;3.656;2024-02-26T03:42:03;4.17;;;2.70;;
21046;SDS011;10682;50.874;3.656;2024-02-26T03:44:31;4.27;;;2.83;;
21046;SDS011;10682;50.874;3.656;2024-02-26T03:46:58;5.70;;;3.00;;
21046;SDS011;10682;50.874;3.656;2024-02-26T03:49:25;5.27;;;3.30;;
21046;SDS011;10682;50.874;3.656;2024-02-26T03:51:52;6.73;;;3.70;;
21046;SDS011;10682;50.874;3.656;2024-02-26T03:54:19;6.17;;;3.70;;
21046;SDS011;10682;50.874;3.656;2024-02-26T03:56:46;6.30;;;3.87;;
21046;SDS011;10682;50.874;3.656;2024-02-26T03:59:13;8.07;;;3.93;;
21046;SDS011;10682;50.874;3.656;2024-02-26T04:01:50;6.27;;;3.87;;
21046;SDS011;10682;50.874;3.656;2024-02-26T04:04:17;6.30;;;4.30;;
21046;SDS011;10682;50.874;3.656;2024-02-26T04:06:45;7.10;;;4.47;;
21046;SDS011;10682;50.874;3.656;2024-02-26T04:09:13;7.93;;;4.80;;
21046;SDS011;10682;50.874;3.656;2024-02-26T04:11:41;9.43;;;4.73;;
21046;SDS011;10682;50.874;3.656;2024-02-26T04:14:11;9.57;;;5.67;;
21046;SDS011;10682;50.874;3.656;2024-02-26T04:16:39;7.93;;;4.70;;
21046;SDS011;10682;50.874;3.656;2024-02-26T04:19:06;9.67;;;5.40;;
21046;SDS011;10682;50.874;3.656;2024-02-26T04:21:34;8.53;;;4.57;;
21046;SDS011;10682;50.874;3.656;2024-02-26T04:28:11;6.47;;;4.23;;
21046;SDS011;10682;50.874;3.656;2024-02-26T04:30:41;9.17;;;5.47;;
21046;SDS011;10682;50.874;3.656;2024-02-26T04:33:08;9.03;;;5.53;;
21046;SDS011;10682;50.874;3.656;2024-02-26T04:35:35;10.40;;;5.30;;
21046;SDS011;10682;50.874;3.656;2024-02-26T04:38:03;8.97;;;5.50;;
21046;SDS011;10682;50.874;3.656;2024-02-26T04:40:30;8.67;;;5.40;;
21046;SDS011;10682;50.874;3.656;2024-02-26T04:42:57;9.97;;;5.77;;
21046;SDS011;10682;50.874;3.656;2024-02-26T04:45:25;9.83;;;6.13;;
21046;SDS011;10682;50.874;3.656;2024-02-26T04:47:52;9.23;;;6.03;;
21046;SDS011;10682;50.874;3.656;2024-02-26T04:50:19;12.03;;;6.37;;
21046;SDS011;10682;50.874;3.656;2024-02-26T04:52:46;11.43;;;6.30;;
21046;SDS011;10682;50.874;3.656;2024-02-26T04:55:13;10.57;;;7.00;;
21046;SDS011;10682;50.874;3.656;2024-02-26T04:57:40;11.50;;;7.17;;
21046;SDS011;10682;50.874;3.656;2024-02-26T05:00:08;12.97;;;7.70;;
21046;SDS011;10682;50.874;3.656;2024-02-26T05:02:36;14.17;;;8.17;;
21046;SDS011;10682;50.874;3.656;2024-02-26T05:05:05;13.53;;;7.27;;
21046;SDS011;10682;50.874;3.656;2024-02-26T05:07:33;14.40;;;8.57;;
21046;SDS011;10682;50.874;3.656;2024-02-26T05:10:00;15.43;;;8.77;;
21046;SDS011;10682;50.874;3.656;2024-02-26T05:12:27;14.83;;;8.43;;
21046;SDS011;10682;50.874;3.656;2024-02-26T05:14:55;17.33;;;9.37;;
21046;SDS011;10682;50.874;3.656;2024-02-26T05:17:22;17.57;;;9.97;;
21046;SDS011;10682;50.874;3.656;2024-02-26T05:19:51;18.40;;;9.57;;
21046;SDS011;10682;50.874;3.656;2024-02-26T05:22:19;16.10;;;9.90;;
21046;SDS011;10682;50.874;3.656;2024-02-26T05:24:46;19.93;;;10.77;;
21046;SDS011;10682;50.874;3.656;2024-02-26T05:27:13;17.97;;;10.23;;
21046;SDS011;10682;50.874;3.656;2024-02-26T05:29:40;19.23;;;10.60;;
21046;SDS011;10682;50.874;3.656;2024-02-26T05:32:08;19.30;;;11.10;;
21046;SDS011;10682;50.874;3.656;2024-02-26T05:34:35;19.83;;;10.97;;
21046;SDS011;10682;50.874;3.656;2024-02-26T05:37:02;21.13;;;10.70;;
21046;SDS011;10682;50.874;3.656;2024-02-26T05:39:29;19.03;;;10.87;;
21046;SDS011;10682;50.874;3.656;2024-02-26T05:41:57;19.30;;;10.73;;
21046;SDS011;10682;50.874;3.656;2024-02-26T05:44:27;15.90;;;11.03;;
21046;SDS011;10682;50.874;3.656;2024-02-26T05:46:54;18.63;;;11.30;;
21046;SDS011;10682;50.874;3.656;2024-02-26T05:49:22;14.83;;;10.07;;
21046;SDS011;10682;50.874;3.656;2024-02-26T05:51:49;20.60;;;10.50;;
21046;SDS011;10682;50.874;3.656;2024-02-26T05:54:16;17.47;;;10.30;;
21046;SDS011;10682;50.874;3.656;2024-02-26T05:56:44;14.47;;;9.63;;
21046;SDS011;10682;50.874;3.656;2024-02-26T05:59:11;17.53;;;9.93;;
21046;SDS011;10682;50.874;3.656;2024-02-26T06:01:38;14.77;;;10.23;;
21046;SDS011;10682;50.874;3.656;2024-02-26T06:04:05;14.13;;;9.73;;
21046;SDS011;10682;50.874;3.656;2024-02-26T06:09:37;15.20;;;10.20;;
21046;SDS011;10682;50.874;3.656;2024-02-26T06:12:07;15.47;;;9.93;;
21046;SDS011;10682;50.874;3.656;2024-02-26T06:14:34;15.13;;;9.77;;
21046;SDS011;10682;50.874;3.656;2024-02-26T06:17:01;14.53;;;9.93;;
21046;SDS011;10682;50.874;3.656;2024-02-26T06:19:28;13.80;;;9.60;;
21046;SDS011;10682;50.874;3.656;2024-02-26T06:21:55;15.53;;;10.07;;
21046;SDS011;10682;50.874;3.656;2024-02-26T06:24:29;17.73;;;10.53;;
21046;SDS011;10682;50.874;3.656;2024-02-26T06:27:14;14.33;;;10.50;;
21046;SDS011;10682;50.874;3.656;2024-02-26T06:29:41;14.47;;;9.97;;
21046;SDS011;10682;50.874;3.656;2024-02-26T06:32:08;17.07;;;10.37;;
21046;SDS011;10682;50.874;3.656;2024-02-26T06:34:35;18.23;;;10.53;;
21046;SDS011;10682;50.874;3.656;2024-02-26T06:37:04;16.47;;;11.13;;
21046;SDS011;10682;50.874;3.656;2024-02-26T06:39:32;16.93;;;10.87;;
21046;SDS011;10682;50.874;3.656;2024-02-26T06:41:59;15.43;;;10.27;;
21046;SDS011;10682;50.874;3.656;2024-02-26T06:44:28;13.37;;;10.20;;
21046;SDS011;10682;50.874;3.656;2024-02-26T06:47:01;15.17;;;10.87;;
21046;SDS011;10682;50.874;3.656;2024-02-26T06:49:28;14.73;;;10.47;;
21046;SDS011;10682;50.874;3.656;2024-02-26T06:51:56;22.00;;;10.57;;
21046;SDS011;10682;50.874;3.656;2024-02-26T06:54:23;17.63;;;10.90;;
21046;SDS011;10682;50.874;3.656;2024-02-26T06:56:50;16.03;;;10.53;;
21046;SDS011;10682;50.874;3.656;2024-02-26T06:59:17;17.27;;;10.27;;
21046;SDS011;10682;50.874;3.656;2024-02-26T07:01:46;17.60;;;11.20;;
21046;SDS011;10682;50.874;3.656;2024-02-26T07:04:13;16.43;;;11.17;;
21046;SDS011;10682;50.874;3.656;2024-02-26T07:06:40;15.67;;;10.53;;
21046;SDS011;10682;50.874;3.656;2024-02-26T07:09:09;16.50;;;10.73;;
21046;SDS011;10682;50.874;3.656;2024-02-26T07:11:38;14.83;;;10.67;;
21046;SDS011;10682;50.874;3.656;2024-02-26T07:14:09;15.33;;;10.50;;
21046;SDS011;10682;50.874;3.656;2024-02-26T07:16:37;14.60;;;11.10;;
21046;SDS011;10682;50.874;3.656;2024-02-26T07:19:04;18.30;;;12.13;;
21046;SDS011;10682;50.874;3.656;2024-02-26T07:21:31;16.17;;;10.93;;
21046;SDS011;10682;50.874;3.656;2024-02-26T07:23:58;15.07;;;10.87;;
21046;SDS011;10682;50.874;3.656;2024-02-26T07:26:26;16.37;;;11.80;;
21046;SDS011;10682;50.874;3.656;2024-02-26T07:28:53;17.63;;;12.40;;
21046;SDS011;10682;50.874;3.656;2024-02-26T07:31:20;16.27;;;12.13;;
21046;SDS011;10682;50.874;3.656;2024-02-26T07:33:47;16.53;;;11.30;;
21046;SDS011;10682;50.874;3.656;2024-02-26T07:36:14;16.70;;;11.90;;
21046;SDS011;10682;50.874;3.656;2024-02-26T07:38:41;18.13;;;12.30;;
21046;SDS011;10682;50.874;3.656;2024-02-26T07:41:11;17.10;;;11.63;;
21046;SDS011;10682;50.874;3.656;2024-02-26T07:43:38;16.90;;;11.87;;
21046;SDS011;10682;50.874;3.656;2024-02-26T07:46:07;16.13;;;11.73;;
21046;SDS011;10682;50.874;3.656;2024-02-26T07:48:35;15.20;;;11.70;;
21046;SDS011;10682;50.874;3.656;2024-02-26T07:51:04;16.70;;;11.30;;
21046;SDS011;10682;50.874;3.656;2024-02-26T07:53:43;16.03;;;11.90;;
21046;SDS011;10682;50.874;3.656;2024-02-26T07:56:11;13.60;;;10.43;;
21046;SDS011;10682;50.874;3.656;2024-02-26T07:58:43;14.37;;;11.03;;
21046;SDS011;10682;50.874;3.656;2024-02-26T08:01:12;14.90;;;10.80;;
21046;SDS011;10682;50.874;3.656;2024-02-26T08:03:41;16.73;;;10.33;;
21046;SDS011;10682;50.874;3.656;2024-02-26T08:06:08;15.20;;;10.10;;
21046;SDS011;10682;50.874;3.656;2024-02-26T08:08:35;15.47;;;10.97;;
21046;SDS011;10682;50.874;3.656;2024-02-26T08:11:03;14.33;;;10.33;;
21046;SDS011;10682;50.874;3.656;2024-02-26T08:13:30;15.43;;;10.87;;
21046;SDS011;10682;50.874;3.656;2024-02-26T08:15:57;15.43;;;10.70;;
21046;SDS011;10682;50.874;3.656;2024-02-26T08:18:25;17.23;;;10.83;;
21046;SDS011;10682;50.874;3.656;2024-02-26T08:20:52;15.93;;;10.97;;
21046;SDS011;10682;50.874;3.656;2024-02-26T08:23:19;15.93;;;10.70;;
21046;SDS011;10682;50.874;3.656;2024-02-26T08:25:47;21.63;;;13.30;;
21046;SDS011;10682;50.874;3.656;2024-02-26T08:31:13;16.47;;;10.93;;
21046;SDS011;10682;50.874;3.656;2024-02-26T08:33:41;16.17;;;10.53;;
21046;SDS011;10682;50.874;3.656;2024-02-26T08:36:08;14.83;;;10.83;;
21046;SDS011;10682;50.874;3.656;2024-02-26T08:38:36;17.43;;;10.23;;
21046;SDS011;10682;50.874;3.656;2024-02-26T08:41:03;15.47;;;10.93;;
21046;SDS011;10682;50.874;3.656;2024-02-26T08:43:32;14.20;;;9.80;;
21046;SDS011;10682;50.874;3.656;2024-02-26T08:45:59;13.37;;;8.93;;
21046;SDS011;10682;50.874;3.656;2024-02-26T08:48:26;16.07;;;9.47;;
21046;SDS011;10682;50.874;3.656;2024-02-26T08:50:53;13.20;;;9.50;;
21046;SDS011;10682;50.874;3.656;2024-02-26T08:53:21;12.93;;;9.23;;
21046;SDS011;10682;50.874;3.656;2024-02-26T08:55:57;14.47;;;9.07;;
21046;SDS011;10682;50.874;3.656;2024-02-26T08:58:24;15.50;;;9.83;;
21046;SDS011;10682;50.874;3.656;2024-02-26T09:00:51;13.50;;;9.67;;
21046;SDS011;10682;50.874;3.656;2024-02-26T09:03:18;15.00;;;9.20;;
21046;SDS011;10682;50.874;3.656;2024-02-26T09:05:45;15.87;;;9.40;;
21046;SDS011;10682;50.874;3.656;2024-02-26T09:08:12;13.53;;;8.73;;
21046;SDS011;10682;50.874;3.656;2024-02-26T09:10:40;12.47;;;9.27;;
21046;SDS011;10682;50.874;3.656;2024-02-26T09:13:08;14.50;;;9.37;;
21046;SDS011;10682;50.874;3.656;2024-02-26T09:15:35;13.33;;;9.30;;
21046;SDS011;10682;50.874;3.656;2024-02-26T09:18:02;11.83;;;9.03;;
21046;SDS011;10682;50.874;3.656;2024-02-26T09:20:29;14.17;;;9.70;;
21046;SDS011;10682;50.874;3.656;2024-02-26T09:22:57;14.23;;;9.90;;
21046;SDS011;10682;50.874;3.656;2024-02-26T09:25:24;15.43;;;9.20;;
21046;SDS011;10682;50.874;3.656;2024-02-26T09:27:51;15.47;;;9.50;;
21046;SDS011;10682;50.874;3.656;2024-02-26T09:30:19;14.93;;;9.13;;
21046;SDS011;10682;50.874;3.656;2024-02-26T09:32:46;12.50;;;8.60;;
21046;SDS011;10682;50.874;3.656;2024-02-26T09:35:16;13.77;;;9.17;;
21046;SDS011;10682;50.874;3.656;2024-02-26T09:38:01;13.90;;;9.30;;
21046;SDS011;10682;50.874;3.656;2024-02-26T09:43:43;13.03;;;9.07;;
21046;SDS011;10682;50.874;3.656;2024-02-26T09:46:12;14.80;;;9.47;;
21046;SDS011;10682;50.874;3.656;2024-02-26T09:48:42;11.87;;;8.43;;
21046;SDS011;10682;50.874;3.656;2024-02-26T09:51:11;15.03;;;9.33;;
21046;SDS011;10682;50.874;3.656;2024-02-26T09:53:39;13.00;;;9.37;;
21046;SDS011;10682;50.874;3.656;2024-02-26T09:56:11;12.63;;;9.30;;
21046;SDS011;10682;50.874;3.656;2024-02-26T09:58:42;14.30;;;9.73;;
21046;SDS011;10682;50.874;3.656;2024-02-26T10:01:13;13.47;;;9.37;;
21046;SDS011;10682;50.874;3.656;2024-02-26T10:03:44;12.80;;;9.03;;
21046;SDS011;10682;50.874;3.656;2024-02-26T10:06:20;12.43;;;8.90;;
21046;SDS011;10682;50.874;3.656;2024-02-26T10:08:47;13.90;;;9.73;;
21046;SDS011;10682;50.874;3.656;2024-02-26T10:11:15;12.27;;;8.90;;
21046;SDS011;10682;50.874;3.656;2024-02-26T10:13:43;13.67;;;9.23;;
21046;SDS011;10682;50.874;3.656;2024-02-26T10:16:10;15.67;;;9.60;;
21046;SDS011;10682;50.874;3.656;2024-02-26T10:18:47;12.43;;;9.43;;
21046;SDS011;10682;50.874;3.656;2024-02-26T10:21:25;10.97;;;8.70;;
21046;SDS011;10682;50.874;3.656;2024-02-26T10:23:53;14.20;;;9.23;;
21046;SDS011;10682;50.874;3.656;2024-02-26T10:26:21;12.93;;;8.50;;
21046;SDS011;10682;50.874;3.656;2024-02-26T10:28:48;11.77;;;8.33;;
21046;SDS011;10682;50.874;3.656;2024-02-26T10:31:20;13.03;;;8.83;;
21046;SDS011;10682;50.874;3.656;2024-02-26T10:33:51;11.37;;;8.83;;
21046;SDS011;10682;50.874;3.656;2024-02-26T10:36:22;12.57;;;9.07;;
21046;SDS011;10682;50.874;3.656;2024-02-26T10:38:57;11.70;;;8.60;;
21046;SDS011;10682;50.874;3.656;2024-02-26T10:41:30;12.80;;;8.73;;
21046;SDS011;10682;50.874;3.656;2024-02-26T10:44:00;11.93;;;8.40;;
21046;SDS011;10682;50.874;3.656;2024-02-26T10:46:27;12.67;;;9.17;;
21046;SDS011;10682;50.874;3.656;2024-02-26T10:48:54;13.57;;;9.23;;
21046;SDS011;10682;50.874;3.656;2024-02-26T10:51:26;14.03;;;9.23;;
21046;SDS011;10682;50.874;3.656;2024-02-26T10:53:59;11.70;;;8.43;;
21046;SDS011;10682;50.874;3.656;2024-02-26T10:56:33;12.53;;;8.97;;
21046;SDS011;10682;50.874;3.656;2024-02-26T10:59:04;12.33;;;8.97;;
21046;SDS011;10682;50.874;3.656;2024-02-26T11:01:38;13.50;;;9.17;;
21046;SDS011;10682;50.874;3.656;2024-02-26T11:04:08;14.37;;;9.70;;
21046;SDS011;10682;50.874;3.656;2024-02-26T11:06:36;15.23;;;9.40;;
21046;SDS011;10682;50.874;3.656;2024-02-26T11:09:05;16.57;;;10.00;;
21046;SDS011;10682;50.874;3.656;2024-02-26T11:11:34;13.40;;;9.87;;
21046;SDS011;10682;50.874;3.656;2024-02-26T11:14:02;14.80;;;9.57;;
21046;SDS011;10682;50.874;3.656;2024-02-26T11:16:30;13.87;;;9.37;;
21046;SDS011;10682;50.874;3.656;2024-02-26T11:19:00;18.30;;;9.97;;
21046;SDS011;10682;50.874;3.656;2024-02-26T11:21:29;16.10;;;10.10;;
21046;SDS011;10682;50.874;3.656;2024-02-26T11:27:25;17.97;;;10.70;;
21046;SDS011;10682;50.874;3.656;2024-02-26T11:30:25;18.40;;;10.67;;
21046;SDS011;10682;50.874;3.656;2024-02-26T11:32:56;17.37;;;10.47;;
21046;SDS011;10682;50.874;3.656;2024-02-26T11:35:24;17.17;;;10.13;;
21046;SDS011;10682;50.874;3.656;2024-02-26T11:37:55;19.33;;;11.07;;
21046;SDS011;10682;50.874;3.656;2024-02-26T11:40:24;19.37;;;10.30;;
21046;SDS011;10682;50.874;3.656;2024-02-26T11:42:52;19.60;;;11.27;;
21046;SDS011;10682;50.874;3.656;2024-02-26T11:48:15;18.40;;;10.27;;
21046;SDS011;10682;50.874;3.656;2024-02-26T11:50:49;19.80;;;10.30;;
21046;SDS011;10682;50.874;3.656;2024-02-26T11:53:29;18.70;;;11.03;;
21046;SDS011;10682;50.874;3.656;2024-02-26T11:58:44;22.87;;;13.13;;
21046;SDS011;10682;50.874;3.656;2024-02-26T12:04:12;20.97;;;11.53;;
21046;SDS011;10682;50.874;3.656;2024-02-26T12:06:54;22.40;;;12.10;;
21046;SDS011;10682;50.874;3.656;2024-02-26T12:09:33;23.47;;;12.47;;
21046;SDS011;10682;50.874;3.656;2024-02-26T12:12:03;19.13;;;10.83;;
21046;SDS011;10682;50.874;3.656;2024-02-26T12:14:40;19.97;;;11.10;;
21046;SDS011;10682;50.874;3.656;2024-02-26T12:17:21;17.93;;;10.53;;
21046;SDS011;10682;50.874;3.656;2024-02-26T12:19:51;18.57;;;10.83;;
21046;SDS011;10682;50.874;3.656;2024-02-26T12:22:20;19.43;;;11.27;;
21046;SDS011;10682;50.874;3.656;2024-02-26T12:24:47;18.87;;;10.57;;
21046;SDS011;10682;50.874;3.656;2024-02-26T12:27:14;19.50;;;10.70;;
21046;SDS011;10682;50.874;3.656;2024-02-26T12:29:42;20.07;;;10.53;;
21046;SDS011;10682;50.874;3.656;2024-02-26T12:32:09;19.63;;;10.60;;
21046;SDS011;10682;50.874;3.656;2024-02-26T12:37:55;17.60;;;9.47;;
21046;SDS011;10682;50.874;3.656;2024-02-26T12:40:22;16.23;;;9.90;;
21046;SDS011;10682;50.874;3.656;2024-02-26T12:42:50;17.70;;;10.03;;
21046;SDS011;10682;50.874;3.656;2024-02-26T12:45:19;15.53;;;9.23;;
21046;SDS011;10682;50.874;3.656;2024-02-26T12:47:47;16.30;;;9.30;;
21046;SDS011;10682;50.874;3.656;2024-02-26T12:50:16;16.40;;;9.57;;
21046;SDS011;10682;50.874;3.656;2024-02-26T12:52:44;18.27;;;9.93;;
21046;SDS011;10682;50.874;3.656;2024-02-26T12:55:14;18.57;;;10.13;;
21046;SDS011;10682;50.874;3.656;2024-02-26T12:57:45;15.97;;;9.47;;
21046;SDS011;10682;50.874;3.656;2024-02-26T13:00:15;21.13;;;10.63;;
21046;SDS011;10682;50.874;3.656;2024-02-26T13:02:46;16.50;;;9.43;;
21046;SDS011;10682;50.874;3.656;2024-02-26T13:05:13;22.20;;;11.10;;
21046;SDS011;10682;50.874;3.656;2024-02-26T13:07:42;20.13;;;11.10;;
21046;SDS011;10682;50.874;3.656;2024-02-26T13:13:17;18.07;;;9.50;;
21046;SDS011;10682;50.874;3.656;2024-02-26T13:15:46;19.87;;;10.77;;
21046;SDS011;10682;50.874;3.656;2024-02-26T13:18:13;21.70;;;12.17;;
21046;SDS011;10682;50.874;3.656;2024-02-26T13:20:41;18.97;;;11.37;;
21046;SDS011;10682;50.874;3.656;2024-02-26T13:23:12;11.93;;;7.80;;
21046;SDS011;10682;50.874;3.656;2024-02-26T13:25:39;16.93;;;8.77;;
21046;SDS011;10682;50.874;3.656;2024-02-26T13:28:15;15.87;;;8.77;;
21046;SDS011;10682;50.874;3.656;2024-02-26T13:30:51;14.47;;;8.10;;
21046;SDS011;10682;50.874;3.656;2024-02-26T13:33:19;13.00;;;7.07;;
21046;SDS011;10682;50.874;3.656;2024-02-26T13:35:47;14.20;;;8.57;;
21046;SDS011;10682;50.874;3.656;2024-02-26T13:38:14;12.47;;;7.67;;
21046;SDS011;10682;50.874;3.656;2024-02-26T13:40:41;15.30;;;9.10;;
21046;SDS011;10682;50.874;3.656;2024-02-26T13:43:09;13.27;;;8.03;;
21046;SDS011;10682;50.874;3.656;2024-02-26T13:45:36;15.67;;;8.80;;
21046;SDS011;10682;50.874;3.656;2024-02-26T13:48:07;18.20;;;9.83;;
21046;SDS011;10682;50.874;3.656;2024-02-26T13:50:40;13.73;;;8.67;;
21046;SDS011;10682;50.874;3.656;2024-02-26T13:53:09;11.67;;;7.33;;
21046;SDS011;10682;50.874;3.656;2024-02-26T13:55:37;14.27;;;7.63;;
21046;SDS011;10682;50.874;3.656;2024-02-26T13:58:06;21.30;;;10.67;;
21046;SDS011;10682;50.874;3.656;2024-02-26T14:00:33;19.77;;;10.67;;
21046;SDS011;10682;50.874;3.656;2024-02-26T14:03:01;15.67;;;8.10;;
21046;SDS011;10682;50.874;3.656;2024-02-26T14:05:30;13.87;;;8.37;;
21046;SDS011;10682;50.874;3.656;2024-02-26T14:07:57;11.87;;;7.17;;
21046;SDS011;10682;50.874;3.656;2024-02-26T14:10:25;12.77;;;7.93;;
21046;SDS011;10682;50.874;3.656;2024-02-26T14:12:52;16.80;;;8.63;;
21046;SDS011;10682;50.874;3.656;2024-02-26T14:15:20;14.60;;;8.17;;
21046;SDS011;10682;50.874;3.656;2024-02-26T14:17:47;14.93;;;8.97;;
21046;SDS011;10682;50.874;3.656;2024-02-26T14:20:20;13.93;;;8.17;;
21046;SDS011;10682;50.874;3.656;2024-02-26T14:22:49;10.83;;;7.10;;
21046;SDS011;10682;50.874;3.656;2024-02-26T14:25:20;10.67;;;6.83;;
21046;SDS011;10682;50.874;3.656;2024-02-26T14:27:48;15.30;;;7.87;;
21046;SDS011;10682;50.874;3.656;2024-02-26T14:30:15;13.07;;;7.57;;
21046;SDS011;10682;50.874;3.656;2024-02-26T14:32:43;12.67;;;7.20;;
21046;SDS011;10682;50.874;3.656;2024-02-26T14:35:10;10.80;;;7.10;;
21046;SDS011;10682;50.874;3.656;2024-02-26T14:40:53;10.70;;;7.13;;
21046;SDS011;10682;50.874;3.656;2024-02-26T14:43:22;11.37;;;7.20;;
21046;SDS011;10682;50.874;3.656;2024-02-26T14:45:49;10.47;;;7.07;;
21046;SDS011;10682;50.874;3.656;2024-02-26T14:48:16;10.97;;;7.10;;
21046;SDS011;10682;50.874;3.656;2024-02-26T14:50:43;10.27;;;6.70;;
21046;SDS011;10682;50.874;3.656;2024-02-26T14:53:11;9.93;;;6.13;;
21046;SDS011;10682;50.874;3.656;2024-02-26T14:58:30;9.93;;;6.40;;
21046;SDS011;10682;50.874;3.656;2024-02-26T15:00:58;9.83;;;6.57;;
21046;SDS011;10682;50.874;3.656;2024-02-26T15:03:26;9.70;;;6.67;;
21046;SDS011;10682;50.874;3.656;2024-02-26T15:05:53;9.70;;;6.03;;
21046;SDS011;10682;50.874;3.656;2024-02-26T15:08:20;11.53;;;6.63;;
21046;SDS011;10682;50.874;3.656;2024-02-26T15:10:49;10.60;;;6.60;;
21046;SDS011;10682;50.874;3.656;2024-02-26T15:13:16;9.00;;;6.20;;
21046;SDS011;10682;50.874;3.656;2024-02-26T15:15:44;10.77;;;6.30;;
21046;SDS011;10682;50.874;3.656;2024-02-26T15:18:12;9.73;;;6.00;;
21046;SDS011;10682;50.874;3.656;2024-02-26T15:20:42;10.77;;;6.67;;
21046;SDS011;10682;50.874;3.656;2024-02-26T15:23:10;10.13;;;6.27;;
21046;SDS011;10682;50.874;3.656;2024-02-26T15:25:38;9.77;;;5.93;;
21046;SDS011;10682;50.874;3.656;2024-02-26T15:28:07;9.37;;;6.00;;
21046;SDS011;10682;50.874;3.656;2024-02-26T15:30:37;9.63;;;5.80;;